sensor_id;sensor_type;location;lat;lon;timestamp;pressure;altitude;pressure_sealevel;temperature;humidity
23733;BME280;12047;53.450;-2.286;2023-01-10T00:03:36;100755.47;;;13.61;100.00
23733;BME280;12047;53.450;-2.286;2023-01-10T00:08:37;100778.19;;;13.12;100.00
23733;BME280;12047;53.450;-2.286;2023-01-10T00:13:37;100774.69;;;13.47;100.00
23733;BME280;12047;53.450;-2.286;2023-01-10T00:18:38;100757.00;;;12.84;100.00
23733;BME280;12047;53.450;-2.286;2023-01-10T00:23:40;100753.50;;;13.02;100.00
23733;BME280;12047;53.450;-2.286;2023-01-10T00:28:40;100757.03;;;13.20;100.00
23733;BME280;12047;53.450;-2.286;2023-01-10T00:33:42;100736.25;;;12.88;100.00
23733;BME280;12047;53.450;-2.286;2023-01-10T00:38:42;100743.25;;;13.07;100.00
23733;BME280;12047;53.450;-2.286;2023-01-10T00:43:43;100739.44;;;12.74;100.00
23733;BME280;12047;53.450;-2.286;2023-01-10T00:48:58;100732.94;;;12.86;100.00
23733;BME280;12047;53.450;-2.286;2023-01-10T00:53:59;100737.09;;;12.88;100.00
23733;BME280;12047;53.450;-2.286;2023-01-10T00:59:00;100738.91;;;12.52;100.00
23733;BME280;12047;53.450;-2.286;2023-01-10T01:04:00;100723.09;;;12.51;100.00
23733;BME280;12047;53.450;-2.286;2023-01-10T01:09:01;100726.88;;;12.31;100.00
23733;BME280;12047;53.450;-2.286;2023-01-10T01:14:02;100741.72;;;12.23;100.00
23733;BME280;12047;53.450;-2.286;2023-01-10T01:19:02;100735.88;;;12.20;100.00
23733;BME280;12047;53.450;-2.286;2023-01-10T01:24:03;100726.50;;;11.88;100.00
23733;BME280;12047;53.450;-2.286;2023-01-10T01:29:04;100705.75;;;12.29;100.00
23733;BME280;12047;53.450;-2.286;2023-01-10T01:34:04;100726.59;;;11.59;100.00
23733;BME280;12047;53.450;-2.286;2023-01-10T01:39:05;100737.44;;;11.85;100.00
23733;BME280;12047;53.450;-2.286;2023-01-10T01:44:12;100744.91;;;12.00;100.00
23733;BME280;12047;53.450;-2.286;2023-01-10T01:49:20;100749.22;;;11.54;100.00
23733;BME280;12047;53.450;-2.286;2023-01-10T01:54:23;100742.66;;;11.48;100.00
23733;BME280;12047;53.450;-2.286;2023-01-10T01:59:35;100740.56;;;12.08;100.00
23733;BME280;12047;53.450;-2.286;2023-01-10T02:04:55;100731.78;;;11.42;100.00
23733;BME280;12047;53.450;-2.286;2023-01-10T02:10:20;100712.38;;;11.88;100.00
23733;BME280;12047;53.450;-2.286;2023-01-10T02:15:19;100707.13;;;11.69;100.00
23733;BME280;12047;53.450;-2.286;2023-01-10T02:20:21;100712.72;;;11.66;100.00
23733;BME280;12047;53.450;-2.286;2023-01-10T02:42:14;100678.34;;;11.37;100.00
23733;BME280;12047;53.450;-2.286;2023-01-10T02:46:44;100688.97;;;11.64;100.00
23733;BME280;12047;53.450;-2.286;2023-01-10T02:51:45;100685.81;;;11.61;100.00
23733;BME280;12047;53.450;-2.286;2023-01-10T03:13:00;100664.31;;;11.91;100.00
23733;BME280;12047;53.450;-2.286;2023-01-10T03:18:08;100650.25;;;10.87;100.00
23733;BME280;12047;53.450;-2.286;2023-01-10T03:23:11;100656.00;;;11.67;100.00
23733;BME280;12047;53.450;-2.286;2023-01-10T03:28:17;100650.34;;;11.89;100.00
23733;BME280;12047;53.450;-2.286;2023-01-10T03:33:25;100643.91;;;11.54;100.00
23733;BME280;12047;53.450;-2.286;2023-01-10T03:38:39;100640.56;;;11.52;100.00
23733;BME280;12047;53.450;-2.286;2023-01-10T03:43:59;100630.88;;;11.24;100.00
23733;BME280;12047;53.450;-2.286;2023-01-10T03:49:23;100621.44;;;11.12;100.00
23733;BME280;12047;53.450;-2.286;2023-01-10T03:54:25;100630.09;;;11.51;100.00
23733;BME280;12047;53.450;-2.286;2023-01-10T03:59:26;100622.44;;;11.48;100.00
23733;BME280;12047;53.450;-2.286;2023-01-10T04:04:27;100615.25;;;11.31;100.00
23733;BME280;12047;53.450;-2.286;2023-01-10T04:09:28;100605.00;;;11.73;100.00
23733;BME280;12047;53.450;-2.286;2023-01-10T04:14:29;100605.97;;;11.81;100.00
23733;BME280;12047;53.450;-2.286;2023-01-10T04:19:32;100606.59;;;11.93;100.00
23733;BME280;12047;53.450;-2.286;2023-01-10T04:24:32;100602.63;;;11.42;100.00
23733;BME280;12047;53.450;-2.286;2023-01-10T04:29:33;100600.38;;;12.02;100.00
23733;BME280;12047;53.450;-2.286;2023-01-10T04:34:34;100591.94;;;11.62;100.00
23733;BME280;12047;53.450;-2.286;2023-01-10T04:39:34;100586.53;;;11.81;100.00
23733;BME280;12047;53.450;-2.286;2023-01-10T04:44:35;100582.53;;;11.95;100.00
23733;BME280;12047;53.450;-2.286;2023-01-10T04:49:35;100572.25;;;12.09;100.00
23733;BME280;12047;53.450;-2.286;2023-01-10T04:54:36;100557.38;;;11.44;100.00
23733;BME280;12047;53.450;-2.286;2023-01-10T04:59:36;100556.53;;;11.98;100.00
23733;BME280;12047;53.450;-2.286;2023-01-10T05:04:37;100543.09;;;12.17;100.00
23733;BME280;12047;53.450;-2.286;2023-01-10T05:09:37;100533.69;;;11.87;100.00
23733;BME280;12047;53.450;-2.286;2023-01-10T05:14:38;100513.88;;;12.00;100.00
23733;BME280;12047;53.450;-2.286;2023-01-10T05:19:39;100497.88;;;12.09;100.00
23733;BME280;12047;53.450;-2.286;2023-01-10T05:24:39;100500.78;;;12.42;100.00
23733;BME280;12047;53.450;-2.286;2023-01-10T05:29:40;100504.16;;;11.90;100.00
23733;BME280;12047;53.450;-2.286;2023-01-10T05:34:41;100506.31;;;11.59;100.00
23733;BME280;12047;53.450;-2.286;2023-01-10T05:39:42;100503.72;;;11.95;100.00
23733;BME280;12047;53.450;-2.286;2023-01-10T05:44:42;100498.13;;;11.71;100.00
23733;BME280;12047;53.450;-2.286;2023-01-10T05:49:43;100486.72;;;12.06;100.00
23733;BME280;12047;53.450;-2.286;2023-01-10T05:54:43;100479.38;;;11.82;100.00
23733;BME280;12047;53.450;-2.286;2023-01-10T05:59:44;100462.81;;;11.88;100.00
23733;BME280;12047;53.450;-2.286;2023-01-10T06:04:45;100466.03;;;11.64;100.00
23733;BME280;12047;53.450;-2.286;2023-01-10T06:09:45;100459.97;;;11.81;100.00
23733;BME280;12047;53.450;-2.286;2023-01-10T06:14:46;100444.13;;;11.44;100.00
23733;BME280;12047;53.450;-2.286;2023-01-10T06:19:46;100438.72;;;11.81;100.00
23733;BME280;12047;53.450;-2.286;2023-01-10T06:24:47;100411.75;;;11.23;100.00
23733;BME280;12047;53.450;-2.286;2023-01-10T06:29:48;100404.88;;;11.30;100.00
23733;BME280;12047;53.450;-2.286;2023-01-10T06:34:48;100381.63;;;11.14;100.00
23733;BME280;12047;53.450;-2.286;2023-01-10T06:39:49;100366.25;;;12.07;100.00
23733;BME280;12047;53.450;-2.286;2023-01-10T06:44:50;100352.00;;;11.90;100.00
23733;BME280;12047;53.450;-2.286;2023-01-10T06:49:51;100340.09;;;11.94;100.00
23733;BME280;12047;53.450;-2.286;2023-01-10T06:54:51;100319.78;;;11.67;100.00
23733;BME280;12047;53.450;-2.286;2023-01-10T06:59:52;100307.91;;;11.97;100.00
23733;BME280;12047;53.450;-2.286;2023-01-10T07:04:52;100295.25;;;11.47;100.00
23733;BME280;12047;53.450;-2.286;2023-01-10T07:09:53;100283.13;;;10.91;100.00
23733;BME280;12047;53.450;-2.286;2023-01-10T07:14:53;100262.00;;;12.05;100.00
23733;BME280;12047;53.450;-2.286;2023-01-10T07:19:54;100255.34;;;11.31;100.00
23733;BME280;12047;53.450;-2.286;2023-01-10T07:24:55;100231.75;;;11.46;100.00
23733;BME280;12047;53.450;-2.286;2023-01-10T07:29:55;100214.75;;;11.56;100.00
23733;BME280;12047;53.450;-2.286;2023-01-10T07:34:56;100198.94;;;12.07;100.00
23733;BME280;12047;53.450;-2.286;2023-01-10T07:39:56;100177.59;;;11.82;100.00
23733;BME280;12047;53.450;-2.286;2023-01-10T07:44:57;100156.72;;;11.62;100.00
23733;BME280;12047;53.450;-2.286;2023-01-10T07:49:57;100129.56;;;11.42;100.00
23733;BME280;12047;53.450;-2.286;2023-01-10T07:54:58;100112.38;;;11.80;100.00
23733;BME280;12047;53.450;-2.286;2023-01-10T07:59:58;100084.03;;;11.88;100.00
23733;BME280;12047;53.450;-2.286;2023-01-10T08:04:59;100061.94;;;11.46;100.00
23733;BME280;12047;53.450;-2.286;2023-01-10T08:09:59;100049.69;;;11.45;100.00
23733;BME280;12047;53.450;-2.286;2023-01-10T08:15:00;100034.63;;;12.04;100.00
23733;BME280;12047;53.450;-2.286;2023-01-10T08:20:00;100016.25;;;11.68;100.00
23733;BME280;12047;53.450;-2.286;2023-01-10T08:25:01;99990.28;;;11.88;100.00
23733;BME280;12047;53.450;-2.286;2023-01-10T08:30:03;99973.22;;;11.82;100.00
23733;BME280;12047;53.450;-2.286;2023-01-10T08:35:04;99956.78;;;11.95;100.00
23733;BME280;12047;53.450;-2.286;2023-01-10T08:40:06;99940.38;;;12.00;100.00
23733;BME280;12047;53.450;-2.286;2023-01-10T08:45:07;99935.72;;;12.26;100.00
23733;BME280;12047;53.450;-2.286;2023-01-10T08:50:08;99913.66;;;12.09;100.00
23733;BME280;12047;53.450;-2.286;2023-01-10T08:55:09;99910.50;;;11.98;100.00
23733;BME280;12047;53.450;-2.286;2023-01-10T09:00:10;99904.00;;;12.16;100.00
23733;BME280;12047;53.450;-2.286;2023-01-10T09:05:11;99879.06;;;12.89;100.00
23733;BME280;12047;53.450;-2.286;2023-01-10T09:10:12;99866.81;;;12.24;100.00
23733;BME280;12047;53.450;-2.286;2023-01-10T09:15:14;99836.97;;;12.06;100.00
23733;BME280;12047;53.450;-2.286;2023-01-10T09:20:15;99830.41;;;12.41;100.00
23733;BME280;12047;53.450;-2.286;2023-01-10T09:25:16;99816.34;;;12.33;100.00
23733;BME280;12047;53.450;-2.286;2023-01-10T09:30:16;99811.88;;;12.17;100.00
23733;BME280;12047;53.450;-2.286;2023-01-10T09:35:17;99814.41;;;12.02;100.00
23733;BME280;12047;53.450;-2.286;2023-01-10T09:40:30;99799.31;;;12.58;100.00
23733;BME280;12047;53.450;-2.286;2023-01-10T09:45:41;99793.78;;;12.29;100.00
23733;BME280;12047;53.450;-2.286;2023-01-10T09:55:52;99757.13;;;12.55;100.00
23733;BME280;12047;53.450;-2.286;2023-01-10T10:00:58;99738.44;;;12.40;100.00
23733;BME280;12047;53.450;-2.286;2023-01-10T10:05:59;99726.13;;;13.01;100.00
23733;BME280;12047;53.450;-2.286;2023-01-10T10:21:46;99696.88;;;13.24;100.00
23733;BME280;12047;53.450;-2.286;2023-01-10T10:26:59;99678.19;;;13.47;100.00
23733;BME280;12047;53.450;-2.286;2023-01-10T10:32:11;99660.03;;;12.90;100.00
23733;BME280;12047;53.450;-2.286;2023-01-10T10:37:37;99662.44;;;13.75;100.00
23733;BME280;12047;53.450;-2.286;2023-01-10T10:42:48;99667.25;;;13.04;100.00
23733;BME280;12047;53.450;-2.286;2023-01-10T10:47:55;99652.31;;;13.41;100.00
23733;BME280;12047;53.450;-2.286;2023-01-10T10:53:00;99637.63;;;13.45;100.00
23733;BME280;12047;53.450;-2.286;2023-01-10T10:58:06;99628.34;;;13.26;100.00
23733;BME280;12047;53.450;-2.286;2023-01-10T11:03:27;99621.88;;;13.58;100.00
23733;BME280;12047;53.450;-2.286;2023-01-10T11:08:38;99614.22;;;13.70;100.00
23733;BME280;12047;53.450;-2.286;2023-01-10T11:13:46;99600.00;;;13.62;100.00
23733;BME280;12047;53.450;-2.286;2023-01-10T11:24:29;99553.44;;;13.88;100.00
23733;BME280;12047;53.450;-2.286;2023-01-10T11:29:43;99536.25;;;14.26;100.00
23733;BME280;12047;53.450;-2.286;2023-01-10T11:35:14;99538.25;;;14.24;100.00
23733;BME280;12047;53.450;-2.286;2023-01-10T11:40:16;99522.28;;;14.46;100.00
23733;BME280;12047;53.450;-2.286;2023-01-10T11:50:20;99487.34;;;14.55;100.00
23733;BME280;12047;53.450;-2.286;2023-01-10T11:55:25;99477.31;;;14.92;100.00
23733;BME280;12047;53.450;-2.286;2023-01-10T12:00:32;99462.47;;;15.17;100.00
23733;BME280;12047;53.450;-2.286;2023-01-10T12:05:33;99454.75;;;15.36;100.00
23733;BME280;12047;53.450;-2.286;2023-01-10T12:10:34;99446.03;;;15.61;100.00
23733;BME280;12047;53.450;-2.286;2023-01-10T12:15:35;99429.63;;;15.64;100.00
23733;BME280;12047;53.450;-2.286;2023-01-10T12:20:47;99426.72;;;15.53;100.00
23733;BME280;12047;53.450;-2.286;2023-01-10T12:25:49;99420.22;;;15.88;100.00
23733;BME280;12047;53.450;-2.286;2023-01-10T12:30:52;99415.53;;;15.97;100.00
23733;BME280;12047;53.450;-2.286;2023-01-10T12:35:58;99407.69;;;15.76;100.00
23733;BME280;12047;53.450;-2.286;2023-01-10T12:41:01;99398.22;;;15.67;100.00
23733;BME280;12047;53.450;-2.286;2023-01-10T12:46:46;99405.44;;;16.12;100.00
23733;BME280;12047;53.450;-2.286;2023-01-10T12:51:52;99378.72;;;16.19;100.00
23733;BME280;12047;53.450;-2.286;2023-01-10T12:56:57;99365.97;;;16.41;100.00
23733;BME280;12047;53.450;-2.286;2023-01-10T13:01:58;99369.66;;;16.53;100.00
23733;BME280;12047;53.450;-2.286;2023-01-10T13:07:01;99356.75;;;16.23;100.00
23733;BME280;12047;53.450;-2.286;2023-01-10T13:12:20;99354.84;;;16.63;100.00
23733;BME280;12047;53.450;-2.286;2023-01-10T13:17:53;99340.00;;;16.61;100.00
23733;BME280;12047;53.450;-2.286;2023-01-10T13:22:59;99328.25;;;16.82;100.00
23733;BME280;12047;53.450;-2.286;2023-01-10T13:28:19;99304.09;;;16.95;100.00
23733;BME280;12047;53.450;-2.286;2023-01-10T13:33:26;99319.97;;;16.90;100.00
23733;BME280;12047;53.450;-2.286;2023-01-10T13:38:47;99311.69;;;17.05;100.00
23733;BME280;12047;53.450;-2.286;2023-01-10T13:44:18;99298.56;;;16.90;100.00
23733;BME280;12047;53.450;-2.286;2023-01-10T13:49:38;99295.13;;;17.52;100.00
23733;BME280;12047;53.450;-2.286;2023-01-10T13:54:54;99280.75;;;17.47;100.00
23733;BME280;12047;53.450;-2.286;2023-01-10T14:00:00;99282.47;;;17.34;100.00
23733;BME280;12047;53.450;-2.286;2023-01-10T14:05:19;99289.19;;;17.44;100.00
23733;BME280;12047;53.450;-2.286;2023-01-10T14:10:25;99261.28;;;18.08;100.00
23733;BME280;12047;53.450;-2.286;2023-01-10T14:15:35;99258.22;;;17.29;100.00
23733;BME280;12047;53.450;-2.286;2023-01-10T14:20:38;99250.19;;;18.04;100.00
23733;BME280;12047;53.450;-2.286;2023-01-10T14:25:38;99241.34;;;18.04;100.00
23733;BME280;12047;53.450;-2.286;2023-01-10T14:30:39;99228.53;;;18.06;100.00
23733;BME280;12047;53.450;-2.286;2023-01-10T14:35:45;99224.00;;;18.06;100.00
23733;BME280;12047;53.450;-2.286;2023-01-10T14:40:48;99219.69;;;18.05;100.00
23733;BME280;12047;53.450;-2.286;2023-01-10T14:46:00;99207.75;;;18.01;100.00
23733;BME280;12047;53.450;-2.286;2023-01-10T14:51:22;99201.19;;;17.97;100.00
23733;BME280;12047;53.450;-2.286;2023-01-10T14:56:27;99193.53;;;18.00;100.00
23733;BME280;12047;53.450;-2.286;2023-01-10T15:01:29;99195.94;;;18.57;100.00
23733;BME280;12047;53.450;-2.286;2023-01-10T15:06:49;99186.59;;;17.93;100.00
23733;BME280;12047;53.450;-2.286;2023-01-10T15:11:51;99182.56;;;18.39;100.00
23733;BME280;12047;53.450;-2.286;2023-01-10T15:16:58;99179.34;;;18.48;100.00
23733;BME280;12047;53.450;-2.286;2023-01-10T15:22:01;99175.13;;;18.41;100.00
23733;BME280;12047;53.450;-2.286;2023-01-10T15:27:05;99155.72;;;18.27;100.00
23733;BME280;12047;53.450;-2.286;2023-01-10T15:37:34;99145.59;;;18.29;100.00
23733;BME280;12047;53.450;-2.286;2023-01-10T15:42:37;99122.00;;;18.01;100.00
23733;BME280;12047;53.450;-2.286;2023-01-10T15:52:52;99111.78;;;18.28;100.00
23733;BME280;12047;53.450;-2.286;2023-01-10T15:57:54;99096.84;;;18.32;100.00
23733;BME280;12047;53.450;-2.286;2023-01-10T16:02:55;99098.41;;;17.73;100.00
23733;BME280;12047;53.450;-2.286;2023-01-10T16:07:56;99074.47;;;18.08;100.00
23733;BME280;12047;53.450;-2.286;2023-01-10T16:13:09;99086.13;;;17.65;100.00
23733;BME280;12047;53.450;-2.286;2023-01-10T16:18:28;99086.59;;;17.81;100.00
23733;BME280;12047;53.450;-2.286;2023-01-10T16:23:33;99078.19;;;17.77;100.00
23733;BME280;12047;53.450;-2.286;2023-01-10T16:28:34;99057.41;;;18.21;100.00
23733;BME280;12047;53.450;-2.286;2023-01-10T16:33:36;99062.00;;;18.32;100.00
23733;BME280;12047;53.450;-2.286;2023-01-10T16:38:37;99055.38;;;17.86;100.00
23733;BME280;12047;53.450;-2.286;2023-01-10T16:43:38;99037.09;;;18.13;100.00
23733;BME280;12047;53.450;-2.286;2023-01-10T16:48:38;99041.47;;;17.59;100.00
23733;BME280;12047;53.450;-2.286;2023-01-10T16:53:39;99016.03;;;17.68;100.00
23733;BME280;12047;53.450;-2.286;2023-01-10T16:58:40;98997.75;;;17.65;100.00
23733;BME280;12047;53.450;-2.286;2023-01-10T17:03:41;98992.13;;;18.15;100.00
23733;BME280;12047;53.450;-2.286;2023-01-10T17:08:43;98972.44;;;17.61;100.00
23733;BME280;12047;53.450;-2.286;2023-01-10T17:13:44;98970.16;;;17.95;100.00
23733;BME280;12047;53.450;-2.286;2023-01-10T17:18:45;98963.97;;;17.46;100.00
23733;BME280;12047;53.450;-2.286;2023-01-10T17:23:46;98960.88;;;17.31;100.00
23733;BME280;12047;53.450;-2.286;2023-01-10T17:28:47;98952.22;;;17.47;100.00
23733;BME280;12047;53.450;-2.286;2023-01-10T17:33:48;98912.16;;;17.22;100.00
23733;BME280;12047;53.450;-2.286;2023-01-10T17:38:49;98924.44;;;17.30;100.00
23733;BME280;12047;53.450;-2.286;2023-01-10T17:43:50;98921.94;;;17.47;100.00
23733;BME280;12047;53.450;-2.286;2023-01-10T17:48:50;98918.63;;;17.33;100.00
23733;BME280;12047;53.450;-2.286;2023-01-10T17:53:54;98914.78;;;17.29;100.00
23733;BME280;12047;53.450;-2.286;2023-01-10T17:58:54;98918.16;;;17.54;100.00
23733;BME280;12047;53.450;-2.286;2023-01-10T18:03:55;98904.28;;;17.27;100.00
23733;BME280;12047;53.450;-2.286;2023-01-10T18:08:56;98905.88;;;17.65;100.00
23733;BME280;12047;53.450;-2.286;2023-01-10T18:13:59;98887.94;;;17.65;100.00
23733;BME280;12047;53.450;-2.286;2023-01-10T18:19:19;98874.06;;;17.39;100.00
23733;BME280;12047;53.450;-2.286;2023-01-10T18:24:20;98877.50;;;17.76;100.00
23733;BME280;12047;53.450;-2.286;2023-01-10T18:29:20;98870.66;;;17.61;100.00
23733;BME280;12047;53.450;-2.286;2023-01-10T18:34:21;98884.59;;;17.82;100.00
23733;BME280;12047;53.450;-2.286;2023-01-10T18:39:21;98872.69;;;17.66;100.00
23733;BME280;12047;53.450;-2.286;2023-01-10T18:44:22;98895.22;;;17.77;100.00
23733;BME280;12047;53.450;-2.286;2023-01-10T18:49:23;99006.03;;;16.53;100.00
23733;BME280;12047;53.450;-2.286;2023-01-10T18:54:23;99048.13;;;16.32;100.00
23733;BME280;12047;53.450;-2.286;2023-01-10T18:59:24;99059.56;;;16.46;100.00
23733;BME280;12047;53.450;-2.286;2023-01-10T19:04:24;99070.47;;;16.76;100.00
23733;BME280;12047;53.450;-2.286;2023-01-10T19:09:25;99082.97;;;16.13;100.00
23733;BME280;12047;53.450;-2.286;2023-01-10T19:14:26;99089.75;;;16.15;100.00
23733;BME280;12047;53.450;-2.286;2023-01-10T19:19:26;99131.19;;;16.31;100.00
23733;BME280;12047;53.450;-2.286;2023-01-10T19:24:28;99132.56;;;16.02;100.00
23733;BME280;12047;53.450;-2.286;2023-01-10T19:29:30;99135.88;;;15.91;100.00
23733;BME280;12047;53.450;-2.286;2023-01-10T19:34:31;99157.66;;;16.39;100.00
23733;BME280;12047;53.450;-2.286;2023-01-10T19:39:32;99181.66;;;16.01;100.00
23733;BME280;12047;53.450;-2.286;2023-01-10T19:44:33;99196.72;;;15.76;100.00
23733;BME280;12047;53.450;-2.286;2023-01-10T19:49:34;99234.84;;;16.22;100.00
23733;BME280;12047;53.450;-2.286;2023-01-10T19:54:36;99247.66;;;15.61;100.00
23733;BME280;12047;53.450;-2.286;2023-01-10T19:59:38;99262.03;;;15.67;100.00
23733;BME280;12047;53.450;-2.286;2023-01-10T20:04:41;99260.81;;;15.76;100.00
23733;BME280;12047;53.450;-2.286;2023-01-10T20:09:41;99248.88;;;15.52;100.00
23733;BME280;12047;53.450;-2.286;2023-01-10T20:14:42;99273.91;;;15.44;100.00
23733;BME280;12047;53.450;-2.286;2023-01-10T20:19:42;99275.38;;;15.93;100.00
23733;BME280;12047;53.450;-2.286;2023-01-10T20:24:43;99277.25;;;15.73;100.00
23733;BME280;12047;53.450;-2.286;2023-01-10T20:29:44;99301.06;;;15.74;100.00
23733;BME280;12047;53.450;-2.286;2023-01-10T20:34:45;99304.13;;;15.64;100.00
23733;BME280;12047;53.450;-2.286;2023-01-10T20:39:46;99316.88;;;15.95;100.00
23733;BME280;12047;53.450;-2.286;2023-01-10T20:44:47;99337.63;;;15.93;100.00
23733;BME280;12047;53.450;-2.286;2023-01-10T20:49:47;99354.88;;;15.91;100.00
23733;BME280;12047;53.450;-2.286;2023-01-10T20:54:48;99370.91;;;15.91;100.00
23733;BME280;12047;53.450;-2.286;2023-01-10T20:59:49;99376.00;;;15.59;100.00
23733;BME280;12047;53.450;-2.286;2023-01-10T21:04:49;99382.41;;;15.58;100.00
23733;BME280;12047;53.450;-2.286;2023-01-10T21:09:50;99416.69;;;15.61;100.00
23733;BME280;12047;53.450;-2.286;2023-01-10T21:14:50;99432.75;;;15.81;100.00
23733;BME280;12047;53.450;-2.286;2023-01-10T21:19:52;99440.56;;;15.76;100.00
23733;BME280;12047;53.450;-2.286;2023-01-10T21:24:53;99455.94;;;15.68;100.00
23733;BME280;12047;53.450;-2.286;2023-01-10T21:29:53;99447.81;;;15.41;100.00
23733;BME280;12047;53.450;-2.286;2023-01-10T21:34:54;99472.34;;;15.64;100.00
23733;BME280;12047;53.450;-2.286;2023-01-10T21:39:54;99459.22;;;15.22;100.00
23733;BME280;12047;53.450;-2.286;2023-01-10T21:44:55;99467.69;;;15.32;100.00
23733;BME280;12047;53.450;-2.286;2023-01-10T21:49:56;99458.34;;;15.15;100.00
23733;BME280;12047;53.450;-2.286;2023-01-10T21:54:57;99475.88;;;15.72;100.00
23733;BME280;12047;53.450;-2.286;2023-01-10T21:59:58;99488.84;;;14.99;100.00
23733;BME280;12047;53.450;-2.286;2023-01-10T22:04:58;99475.66;;;15.25;100.00
23733;BME280;12047;53.450;-2.286;2023-01-10T22:09:59;99482.91;;;15.38;100.00
23733;BME280;12047;53.450;-2.286;2023-01-10T22:14:59;99488.78;;;15.20;100.00
23733;BME280;12047;53.450;-2.286;2023-01-10T22:20:00;99486.81;;;15.01;100.00
23733;BME280;12047;53.450;-2.286;2023-01-10T22:25:01;99500.41;;;15.13;100.00
23733;BME280;12047;53.450;-2.286;2023-01-10T22:30:01;99499.00;;;15.17;100.00
23733;BME280;12047;53.450;-2.286;2023-01-10T22:35:02;99501.50;;;14.90;100.00
23733;BME280;12047;53.450;-2.286;2023-01-10T22:40:03;99515.16;;;15.02;100.00
23733;BME280;12047;53.450;-2.286;2023-01-10T22:45:04;99508.41;;;15.06;100.00
23733;BME280;12047;53.450;-2.286;2023-01-10T22:50:05;99524.44;;;15.13;100.00
23733;BME280;12047;53.450;-2.286;2023-01-10T22:55:06;99542.09;;;15.14;100.00
23733;BME280;12047;53.450;-2.286;2023-01-10T23:00:07;99544.03;;;14.98;100.00
23733;BME280;12047;53.450;-2.286;2023-01-10T23:05:08;99556.72;;;14.26;100.00
23733;BME280;12047;53.450;-2.286;2023-01-10T23:10:09;99572.97;;;14.10;100.00
23733;BME280;12047;53.450;-2.286;2023-01-10T23:15:10;99592.31;;;14.40;100.00
23733;BME280;12047;53.450;-2.286;2023-01-10T23:20:11;99603.13;;;14.32;100.00
23733;BME280;12047;53.450;-2.286;2023-01-10T23:25:11;99615.94;;;14.64;100.00
23733;BME280;12047;53.450;-2.286;2023-01-10T23:30:12;99630.13;;;14.28;100.00
23733;BME280;12047;53.450;-2.286;2023-01-10T23:35:13;99637.97;;;14.37;100.00
23733;BME280;12047;53.450;-2.286;2023-01-10T23:40:14;99639.72;;;14.08;100.00
23733;BME280;12047;53.450;-2.286;2023-01-10T23:45:14;99650.75;;;14.05;100.00
23733;BME280;12047;53.450;-2.286;2023-01-10T23:50:15;99669.59;;;14.40;100.00
23733;BME280;12047;53.450;-2.286;2023-01-10T23:55:15;99669.13;;;14.00;100.00
